Time;durP1;ratioP1;P1;durP2;ratioP2;P2;SDS_P1;SDS_P2;PMS_P1;PMS_P2;Temp;Humidity;BMP_temperature;BMP_pressure;BME280_temperature;BME280_humidity;BME280_pressure;Samples;Min_cycle;Max_cycle;Signal;HPM_P1;HPM_P2
2022/04/18 00:00:33;;;;;;;;;;;;;;;6.13;43.91;92936.59;2052193;69;20062;-67
2022/04/18 00:03:03;;;;;;;;;;;;;;;6.07;45.73;92932.00;2051937;70;20518;-68
2022/04/18 00:05:29;;;;;;;;;;;;;;;6.04;45.87;92933.16;2052044;69;20116;-68
2022/04/18 00:07:55;;;;;;;;;;;;;;;5.93;45.49;92927.34;2051901;69;20102;-67
2022/04/18 00:10:21;;;;;;;;;;;;;;;5.80;46.76;92922.78;2052265;70;20094;-66
2022/04/18 00:12:46;;;;;;;;;;;;;;;5.88;44.85;92928.31;2052204;70;20059;-68
2022/04/18 00:15:12;;;;;;;;;;;;;;;5.91;46.53;92921.53;2052277;70;20054;-68
2022/04/18 00:17:37;;;;;;;;;;;;;;;5.74;45.97;92925.09;2052139;69;20098;-68
2022/04/18 00:20:03;;;;;;;;;;;;;;;5.82;45.54;92917.38;2052096;70;20154;-68
2022/04/18 00:22:29;;;;;;;;;;;;;;;5.79;46.13;92919.25;2052135;70;20054;-67
2022/04/18 00:24:55;;;;;;;;;;;;;;;5.75;46.48;92918.91;2052207;70;20049;-69
2022/04/18 00:27:20;;;;;;;;;;;;;;;5.74;47.21;92919.50;2051921;70;20671;-69
2022/04/18 00:29:47;;;;;;;;;;;;;;;5.54;47.26;92921.34;2052016;69;20509;-68
2022/04/18 00:32:14;;;;;;;;;;;;;;;5.48;47.26;92920.88;2052178;69;20061;-68
2022/04/18 00:34:40;;;;;;;;;;;;;;;5.45;46.81;92914.38;2052107;70;20058;-68
2022/04/18 00:37:05;;;;;;;;;;;;;;;5.55;46.64;92917.28;2067792;69;20043;-67
2022/04/18 00:39:31;;;;;;;;;;;;;;;5.51;46.80;92920.47;2052020;70;20062;-68
2022/04/18 00:41:57;;;;;;;;;;;;;;;5.50;46.50;92919.00;2065002;69;20050;-67
2022/04/18 00:44:22;;;;;;;;;;;;;;;5.34;47.12;92912.06;2065171;69;20482;-67
2022/04/18 00:46:48;;;;;;;;;;;;;;;5.39;47.75;92908.28;2051884;70;20502;-68
2022/04/18 00:49:13;;;;;;;;;;;;;;;5.36;47.76;92915.03;2065033;69;20542;-68
2022/04/18 00:51:39;;;;;;;;;;;;;;;5.39;46.80;92911.06;2052044;69;20411;-67
2022/04/18 00:54:05;;;;;;;;;;;;;;;5.28;47.80;92903.19;2064686;69;20054;-66
2022/04/18 00:56:31;;;;;;;;;;;;;;;5.34;48.35;92906.47;2064989;69;20074;-66
2022/04/18 00:58:57;;;;;;;;;;;;;;;5.22;47.74;92892.25;2067673;69;20047;-66
2022/04/18 01:01:26;;;;;;;;;;;;;;;5.30;46.70;92889.38;2064903;69;20043;-67
2022/04/18 01:03:54;;;;;;;;;;;;;;;5.25;48.27;92887.56;2064790;69;20059;-66
2022/04/18 01:06:20;;;;;;;;;;;;;;;5.08;47.70;92879.88;2051274;70;20058;-67
2022/04/18 01:08:48;;;;;;;;;;;;;;;4.96;48.53;92882.41;2064961;69;20055;-67
2022/04/18 01:11:14;;;;;;;;;;;;;;;5.22;47.50;92881.09;2065011;69;20138;-67
2022/04/18 01:14:00;;;;;;;;;;;;;;;5.19;47.75;92875.91;2052040;70;20501;-68
2022/04/18 01:16:44;;;;;;;;;;;;;;;5.12;47.60;92871.84;2062962;69;20217;-67
2022/04/18 01:19:18;;;;;;;;;;;;;;;5.03;48.36;92867.66;2064060;69;20494;-68
2022/04/18 01:22:10;;;;;;;;;;;;;;;5.00;48.70;92877.19;2047796;70;20053;-67
2022/04/18 01:30:29;;;;;;;;;;;;;;;4.96;48.89;92860.09;2064825;69;20072;-67
2022/04/18 01:32:55;;;;;;;;;;;;;;;5.05;48.77;92853.88;2064737;69;20491;-68
2022/04/18 01:35:20;;;;;;;;;;;;;;;4.94;48.47;92857.13;2064773;69;20071;-67
2022/04/18 01:37:46;;;;;;;;;;;;;;;4.91;48.30;92852.72;2064719;69;20061;-68
2022/04/18 01:40:15;;;;;;;;;;;;;;;4.97;48.05;92846.88;2064769;69;20053;-67
2022/04/18 01:42:40;;;;;;;;;;;;;;;5.02;47.97;92852.22;2064992;69;20078;-68
2022/04/18 01:45:07;;;;;;;;;;;;;;;5.00;47.06;92843.69;2065328;69;20131;-67
2022/04/18 01:47:33;;;;;;;;;;;;;;;4.91;48.14;92844.34;2068093;69;20046;-67
2022/04/18 01:49:59;;;;;;;;;;;;;;;4.76;49.32;92847.97;2065214;69;20519;-68
2022/04/18 01:52:24;;;;;;;;;;;;;;;4.77;48.59;92843.91;2052596;70;20054;-68
2022/04/18 01:54:50;;;;;;;;;;;;;;;4.65;48.85;92837.28;2065074;69;20517;-67
2022/04/18 01:57:18;;;;;;;;;;;;;;;4.74;48.90;92842.22;2065167;69;20062;-67
2022/04/18 01:59:44;;;;;;;;;;;;;;;4.64;49.89;92835.06;2065125;69;20123;-68
2022/04/18 02:02:11;;;;;;;;;;;;;;;4.65;48.97;92828.91;2065472;69;20441;-68
2022/04/18 02:04:36;;;;;;;;;;;;;;;4.61;49.82;92828.56;2065375;69;20138;-68
2022/04/18 02:07:03;;;;;;;;;;;;;;;4.51;49.26;92819.34;2065296;69;20142;-67
2022/04/18 02:09:29;;;;;;;;;;;;;;;4.46;50.19;92825.91;2065321;69;20145;-69
2022/04/18 02:11:54;;;;;;;;;;;;;;;4.52;48.85;92818.78;2052415;69;20135;-68
2022/04/18 02:14:23;;;;;;;;;;;;;;;4.46;49.45;92823.13;2052266;70;20049;-68
2022/04/18 02:16:52;;;;;;;;;;;;;;;4.30;50.65;92816.88;2065405;69;20047;-67
2022/04/18 02:19:23;;;;;;;;;;;;;;;4.31;50.16;92813.56;2052651;69;20071;-67
2022/04/18 02:21:48;;;;;;;;;;;;;;;4.38;50.70;92802.91;2052344;69;20059;-68
2022/04/18 02:24:14;;;;;;;;;;;;;;;4.26;50.26;92814.53;2052281;70;20465;-67
2022/04/18 02:26:40;;;;;;;;;;;;;;;4.41;50.65;92810.88;2048985;70;20520;-68
2022/04/18 02:29:09;;;;;;;;;;;;;;;4.38;50.06;92806.44;2065361;69;20051;-69
2022/04/18 02:32:47;;;;;;;;;;;;;;;4.37;49.37;92804.97;2065357;69;20506;-68
2022/04/18 02:34:20;;;;;;;;;;;;;;;4.38;49.02;92803.66;2065231;69;20093;-68
2022/04/18 02:36:46;;;;;;;;;;;;;;;4.27;49.75;92795.75;2052465;70;20091;-68
2022/04/18 02:39:11;;;;;;;;;;;;;;;4.15;50.66;92798.22;2065063;69;20062;-68
2022/04/18 02:41:37;;;;;;;;;;;;;;;4.19;51.48;92800.63;2065136;69;20438;-69
2022/04/18 02:44:02;;;;;;;;;;;;;;;4.24;49.85;92794.81;2065153;69;20051;-68
2022/04/18 02:46:28;;;;;;;;;;;;;;;4.14;50.79;92787.66;2065269;69;20058;-67
2022/04/18 02:48:57;;;;;;;;;;;;;;;4.15;51.36;92783.56;2065155;69;20090;-68
2022/04/18 02:51:27;;;;;;;;;;;;;;;4.14;51.18;92788.41;2065197;69;20154;-67
2022/04/18 02:53:54;;;;;;;;;;;;;;;4.24;50.27;92780.16;2065042;69;20065;-67
2022/04/18 02:56:20;;;;;;;;;;;;;;;4.14;49.87;92779.31;2049156;69;20070;-67
2022/04/18 02:58:48;;;;;;;;;;;;;;;4.22;50.11;92780.00;2065194;69;20483;-67
2022/04/18 03:01:14;;;;;;;;;;;;;;;4.13;50.35;92775.78;2065194;69;20130;-68
2022/04/18 03:03:40;;;;;;;;;;;;;;;4.11;49.92;92778.38;2065421;69;20242;-68
2022/04/18 03:06:06;;;;;;;;;;;;;;;4.00;50.48;92782.34;2065119;69;20066;-68
2022/04/18 03:08:32;;;;;;;;;;;;;;;3.89;50.81;92785.56;2065170;69;20053;-68
2022/04/18 03:11:05;;;;;;;;;;;;;;;3.84;52.01;92780.94;2052385;70;20137;-68
2022/04/18 03:13:36;;;;;;;;;;;;;;;3.87;50.55;92781.88;2065221;69;20140;-68
2022/04/18 03:16:06;;;;;;;;;;;;;;;3.80;51.63;92778.56;2048890;69;20061;-68
2022/04/18 03:18:33;;;;;;;;;;;;;;;3.78;51.62;92775.59;2049016;70;20070;-68
2022/04/18 03:20:58;;;;;;;;;;;;;;;3.84;50.90;92778.16;2065237;69;20066;-68
2022/04/18 03:23:24;;;;;;;;;;;;;;;3.71;51.34;92767.28;2065135;69;20131;-68
2022/04/18 03:26:09;;;;;;;;;;;;;;;3.64;51.78;92774.38;2052407;70;20054;-68
2022/04/18 03:29:00;;;;;;;;;;;;;;;3.77;52.62;92774.13;2053456;69;20496;-68
2022/04/18 03:31:26;;;;;;;;;;;;;;;3.71;51.89;92772.84;2052198;70;20058;-68
2022/04/18 03:33:52;;;;;;;;;;;;;;;3.69;52.26;92767.84;2065281;69;20120;-69
2022/04/18 03:41:46;;;;;;;;;;;;;;;3.86;51.52;92778.34;2065460;69;20098;-69
2022/04/18 03:44:12;;;;;;;;;;;;;;;3.65;51.86;92781.41;2065376;69;20491;-69
2022/04/18 03:46:38;;;;;;;;;;;;;;;3.55;52.55;92775.72;2065419;69;20082;-69
2022/04/18 03:49:03;;;;;;;;;;;;;;;3.51;52.60;92775.34;2052572;70;20054;-69
2022/04/18 03:51:29;;;;;;;;;;;;;;;3.58;53.11;92779.44;2065389;69;20146;-70
2022/04/18 03:53:55;;;;;;;;;;;;;;;3.62;51.29;92774.22;2065284;69;20054;-69
2022/04/18 03:56:23;;;;;;;;;;;;;;;3.72;50.09;92769.50;2065397;69;20051;-69
2022/04/18 03:59:11;;;;;;;;;;;;;;;3.62;50.96;92779.00;2056393;69;20085;-69
2022/04/18 04:01:55;;;;;;;;;;;;;;;3.60;51.58;92776.06;2065476;69;20053;-69
2022/04/18 04:04:22;;;;;;;;;;;;;;;3.50;52.87;92771.09;2065365;69;20071;-69
2022/04/18 04:06:49;;;;;;;;;;;;;;;3.58;51.29;92768.28;2051885;70;20139;-69
2022/04/18 04:09:15;;;;;;;;;;;;;;;3.49;52.21;92768.88;2065271;69;20210;-69
2022/04/18 04:11:40;;;;;;;;;;;;;;;3.46;52.62;92765.16;2065354;69;20475;-69
2022/04/18 04:14:06;;;;;;;;;;;;;;;3.41;52.13;92765.38;2045449;69;20059;-69
2022/04/18 04:16:31;;;;;;;;;;;;;;;3.33;51.87;92764.69;2045939;70;20044;-69
2022/04/18 04:18:58;;;;;;;;;;;;;;;3.54;51.72;92760.31;2045255;70;20055;-69
2022/04/18 04:21:23;;;;;;;;;;;;;;;3.48;50.81;92770.94;2045239;70;20047;-69
2022/04/18 04:23:52;;;;;;;;;;;;;;;3.51;51.53;92766.28;2045145;70;20070;-69
2022/04/18 04:26:36;;;;;;;;;;;;;;;3.51;51.77;92761.44;2045283;70;20121;-69
2022/04/18 04:29:02;;;;;;;;;;;;;;;3.45;52.20;92763.69;2045759;70;20063;-69
2022/04/18 04:31:33;;;;;;;;;;;;;;;3.37;50.42;92759.47;2045265;69;20051;-69
2022/04/18 04:33:59;;;;;;;;;;;;;;;3.27;52.51;92757.28;2045218;70;20512;-69
2022/04/18 04:36:26;;;;;;;;;;;;;;;3.25;52.23;92751.53;2045249;70;20061;-69
2022/04/18 04:38:54;;;;;;;;;;;;;;;3.38;51.44;92761.69;2045151;70;20063;-69
2022/04/18 04:41:49;;;;;;;;;;;;;;;3.09;52.98;92761.22;2043782;70;20474;-69
2022/04/18 04:44:15;;;;;;;;;;;;;;;3.18;53.11;92760.66;2045212;70;20078;-69
2022/04/18 04:46:55;;;;;;;;;;;;;;;3.28;53.44;92763.56;2045351;70;20074;-69
2022/04/18 04:49:22;;;;;;;;;;;;;;;3.24;51.86;92766.75;2042469;70;20071;-69
2022/04/18 04:52:10;;;;;;;;;;;;;;;3.23;52.53;92765.25;2044620;70;20442;-69
2022/04/18 04:54:36;;;;;;;;;;;;;;;3.31;53.05;92760.41;2042301;70;20048;-68
2022/04/18 04:57:04;;;;;;;;;;;;;;;3.20;53.16;92769.16;2045153;70;20487;-70
2022/04/18 04:59:49;;;;;;;;;;;;;;;3.11;53.63;92766.97;2047936;70;20055;-69
2022/04/18 05:02:14;;;;;;;;;;;;;;;3.14;53.83;92771.41;2045172;70;20047;-70
2022/04/18 05:04:40;;;;;;;;;;;;;;;3.13;53.05;92760.84;2045665;70;20147;-69
2022/04/18 05:07:08;;;;;;;;;;;;;;;3.03;53.93;92761.44;2045272;70;20047;-69
2022/04/18 05:09:51;;;;;;;;;;;;;;;3.13;53.92;92769.19;2045039;70;20420;-69
2022/04/18 05:12:18;;;;;;;;;;;;;;;3.04;54.33;92774.03;2046135;70;20585;-68
2022/04/18 05:14:43;;;;;;;;;;;;;;;3.13;54.71;92766.41;2048409;70;20051;-69
2022/04/18 05:17:21;;;;;;;;;;;;;;;3.22;52.98;92763.78;2048409;70;20572;-69
2022/04/18 05:19:54;;;;;;;;;;;;;;;3.24;53.52;92766.75;2048947;70;20059;-69
2022/04/18 05:22:24;;;;;;;;;;;;;;;3.16;54.29;92768.81;2049002;70;20051;-70
2022/04/18 05:24:50;;;;;;;;;;;;;;;3.19;54.91;92767.69;2045604;70;20051;-69
2022/04/18 05:27:21;;;;;;;;;;;;;;;3.04;55.24;92771.25;2048412;70;20137;-69
2022/04/18 05:29:47;;;;;;;;;;;;;;;3.05;54.99;92767.16;2048392;70;20063;-69
2022/04/18 05:32:13;;;;;;;;;;;;;;;3.21;53.89;92767.88;2048370;70;20054;-69
2022/04/18 05:34:45;;;;;;;;;;;;;;;2.75;56.44;92768.00;2048384;70;20145;-69
2022/04/18 05:37:20;;;;;;;;;;;;;;;3.10;55.22;92781.44;2048366;70;20058;-69
2022/04/18 05:40:03;;;;;;;;;;;;;;;3.02;55.22;92773.88;2048394;70;20169;-69
2022/04/18 05:42:33;;;;;;;;;;;;;;;3.10;54.98;92775.88;2048326;70;20054;-69
2022/04/18 05:45:06;;;;;;;;;;;;;;;3.17;55.03;92780.69;2048381;70;20104;-69
2022/04/18 05:47:32;;;;;;;;;;;;;;;3.21;54.03;92784.56;2048869;70;20050;-69
2022/04/18 05:50:00;;;;;;;;;;;;;;;3.04;54.76;92773.31;2048435;70;20472;-69
2022/04/18 05:52:25;;;;;;;;;;;;;;;3.12;54.47;92773.28;2048859;70;20054;-69
2022/04/18 05:54:55;;;;;;;;;;;;;;;3.06;54.90;92777.00;2048318;70;20408;-69
2022/04/18 05:57:21;;;;;;;;;;;;;;;2.86;56.89;92771.69;2048312;70;20080;-68
2022/04/18 05:59:49;;;;;;;;;;;;;;;2.99;55.62;92763.84;2048317;70;20044;-68
2022/04/18 06:02:17;;;;;;;;;;;;;;;3.13;54.51;92764.38;2048292;70;20062;-68
2022/04/18 06:05:04;;;;;;;;;;;;;;;3.09;55.00;92754.94;2048291;70;20055;-68
2022/04/18 06:07:50;;;;;;;;;;;;;;;3.14;55.34;92765.13;2047207;70;20134;-68
2022/04/18 06:10:44;;;;;;;;;;;;;;;3.20;54.79;92760.81;2048231;70;20055;-69
2022/04/18 06:13:29;;;;;;;;;;;;;;;3.36;54.32;92758.00;2051149;70;20197;-70
2022/04/18 06:15:56;;;;;;;;;;;;;;;3.25;55.06;92764.69;2065053;69;20058;-68
2022/04/18 06:18:23;;;;;;;;;;;;;;;3.20;55.57;92757.28;2065045;69;20054;-69
2022/04/18 06:20:49;;;;;;;;;;;;;;;3.19;55.77;92762.13;2062214;69;20107;-68
2022/04/18 06:23:15;;;;;;;;;;;;;;;3.16;55.71;92754.91;2051964;69;20059;-69
2022/04/18 06:25:42;;;;;;;;;;;;;;;3.22;56.10;92761.00;2065038;69;20419;-69
2022/04/18 06:28:07;;;;;;;;;;;;;;;3.48;54.76;92754.22;2065167;69;20050;-70
2022/04/18 06:30:40;;;;;;;;;;;;;;;3.23;55.75;92740.22;2065691;69;20093;-69
2022/04/18 06:33:37;;;;;;;;;;;;;;;3.54;52.63;92751.97;2055447;69;20165;-69
2022/04/18 06:36:05;;;;;;;;;;;;;;;3.64;53.94;92740.22;2065617;69;20509;-70
2022/04/18 06:38:36;;;;;;;;;;;;;;;3.72;53.30;92740.94;2065493;69;20078;-70
2022/04/18 06:41:04;;;;;;;;;;;;;;;4.06;54.69;92732.72;2065527;69;20489;-70
2022/04/18 06:43:34;;;;;;;;;;;;;;;4.76;51.64;92741.97;2065545;69;20050;-70
2022/04/18 06:46:05;;;;;;;;;;;;;;;5.18;47.99;92734.88;2065662;69;20422;-70
2022/04/18 06:48:31;;;;;;;;;;;;;;;5.59;46.96;92734.03;2065500;69;20073;-70
2022/04/18 06:51:15;;;;;;;;;;;;;;;6.05;46.02;92739.00;2052567;70;20054;-70
2022/04/18 06:54:03;;;;;;;;;;;;;;;6.46;47.51;92727.38;2053337;69;20053;-70
2022/04/18 06:57:00;;;;;;;;;;;;;;;6.78;46.81;92726.31;2065532;69;20082;-70
2022/04/18 06:59:40;;;;;;;;;;;;;;;7.23;48.12;92724.72;2049243;70;20491;-70
2022/04/18 07:02:07;;;;;;;;;;;;;;;7.19;48.67;92716.03;2065461;69;20093;-70
2022/04/18 07:04:32;;;;;;;;;;;;;;;7.82;45.00;92719.84;2062663;69;20123;-70
2022/04/18 07:06:58;;;;;;;;;;;;;;;7.94;45.84;92717.16;2065591;69;20407;-71
2022/04/18 07:09:24;;;;;;;;;;;;;;;8.32;44.62;92719.84;2065388;69;20504;-71
2022/04/18 07:12:00;;;;;;;;;;;;;;;8.70;44.57;92711.88;2052529;70;20058;-72
2022/04/18 07:14:26;;;;;;;;;;;;;;;8.70;44.01;92711.88;2065549;69;20054;-70
2022/04/18 07:16:55;;;;;;;;;;;;;;;8.92;42.74;92710.56;2065444;69;20054;-71
2022/04/18 07:19:24;;;;;;;;;;;;;;;8.99;43.08;92706.09;2065437;69;20111;-71
2022/04/18 07:21:50;;;;;;;;;;;;;;;9.33;41.85;92702.75;2065429;69;20058;-70
2022/04/18 07:24:17;;;;;;;;;;;;;;;9.76;41.72;92699.13;2065407;69;20047;-70
2022/04/18 07:26:44;;;;;;;;;;;;;;;10.17;40.84;92699.59;2065429;69;20061;-70
2022/04/18 07:29:10;;;;;;;;;;;;;;;10.69;41.06;92696.50;2065535;69;20055;-70
2022/04/18 07:31:37;;;;;;;;;;;;;;;10.74;39.99;92697.47;2065463;69;20051;-69
2022/04/18 07:34:03;;;;;;;;;;;;;;;10.82;40.85;92686.69;2052442;70;20047;-70
2022/04/18 07:36:28;;;;;;;;;;;;;;;11.03;40.28;92687.88;2065408;69;20051;-70
2022/04/18 07:38:55;;;;;;;;;;;;;;;11.23;39.12;92680.63;2065290;69;20105;-70
2022/04/18 07:41:25;;;;;;;;;;;;;;;11.63;37.87;92679.38;2065308;69;20155;-69
2022/04/18 07:43:52;;;;;;;;;;;;;;;11.78;37.32;92675.28;2046618;69;20062;-70
2022/04/18 07:46:18;;;;;;;;;;;;;;;11.80;38.46;92669.00;2065438;69;20047;-70
2022/04/18 07:48:46;;;;;;;;;;;;;;;11.88;37.64;92677.97;2065411;69;20119;-71
2022/04/18 07:53:56;;;;;;;;;;;;;;;11.33;37.51;92666.38;2065301;69;20058;-69
2022/04/18 07:56:22;;;;;;;;;;;;;;;11.74;37.81;92668.69;2065283;69;20163;-70
2022/04/18 07:58:50;;;;;;;;;;;;;;;12.64;36.42;92668.63;2046408;70;20055;-69
2022/04/18 08:01:25;;;;;;;;;;;;;;;12.94;36.41;92655.34;2065316;69;20491;-69
2022/04/18 08:03:51;;;;;;;;;;;;;;;13.26;37.16;92659.13;2068258;69;20510;-70
2022/04/18 08:06:17;;;;;;;;;;;;;;;12.91;36.68;92648.84;2065265;69;20154;-69
2022/04/18 08:09:03;;;;;;;;;;;;;;;12.96;34.17;92656.19;2065146;69;20058;-70
2022/04/18 08:11:28;;;;;;;;;;;;;;;12.77;33.87;92641.75;2065338;69;20437;-69
2022/04/18 08:13:54;;;;;;;;;;;;;;;13.59;34.00;92644.47;2065234;69;20134;-70
2022/04/18 08:16:38;;;;;;;;;;;;;;;13.87;33.99;92641.56;2052409;70;20061;-69
2022/04/18 08:19:17;;;;;;;;;;;;;;;14.47;32.71;92638.00;2065366;69;20461;-70
2022/04/18 08:21:42;;;;;;;;;;;;;;;14.75;32.24;92643.50;2062503;69;20050;-69
2022/04/18 08:24:08;;;;;;;;;;;;;;;14.54;31.94;92638.31;2065188;69;20403;-69
2022/04/18 08:27:02;;;;;;;;;;;;;;;14.83;29.76;92637.47;2059850;69;20483;-71
2022/04/18 08:29:34;;;;;;;;;;;;;;;14.64;31.49;92633.81;2065320;69;20498;-69
2022/04/18 08:32:22;;;;;;;;;;;;;;;15.72;31.12;92624.25;2052243;69;20162;-74
2022/04/18 08:34:49;;;;;;;;;;;;;;;15.58;30.63;92626.50;2065223;69;20054;-72
2022/04/18 08:37:18;;;;;;;;;;;;;;;15.27;29.67;92632.28;2065262;69;20078;-69
2022/04/18 08:40:04;;;;;;;;;;;;;;;14.34;29.16;92630.34;2052365;70;20095;-73
2022/04/18 08:42:33;;;;;;;;;;;;;;;14.53;30.22;92622.69;2068049;69;20181;-70
2022/04/18 08:45:00;;;;;;;;;;;;;;;15.00;29.36;92614.84;2048962;70;20086;-70
2022/04/18 08:52:55;;;;;;;;;;;;;;;15.05;30.34;92609.38;2064843;69;20131;-77
2022/04/18 08:55:33;;;;;;;;;;;;;;;15.60;29.18;92600.31;2065061;69;20478;-70
2022/04/18 08:58:06;;;;;;;;;;;;;;;15.97;28.64;92597.56;2062570;69;20090;-69
2022/04/18 09:00:35;;;;;;;;;;;;;;;16.25;28.84;92597.19;2068057;69;20042;-70
2022/04/18 09:03:20;;;;;;;;;;;;;;;15.47;28.88;92585.63;2052226;69;20419;-70
2022/04/18 09:06:03;;;;;;;;;;;;;;;17.27;28.76;92586.69;2065199;69;20134;-71
2022/04/18 09:08:29;;;;;;;;;;;;;;;17.54;27.42;92574.78;2065088;69;20145;-69
2022/04/18 09:10:54;;;;;;;;;;;;;;;16.79;26.39;92569.38;2048921;69;20051;-70
2022/04/18 09:13:23;;;;;;;;;;;;;;;16.65;27.20;92575.25;2065087;69;20051;-71
2022/04/18 09:15:51;;;;;;;;;;;;;;;17.53;28.07;92569.78;2065039;69;20054;-70
2022/04/18 09:18:22;;;;;;;;;;;;;;;17.73;27.72;92567.63;2065088;69;20051;-69
2022/04/18 09:20:55;;;;;;;;;;;;;;;17.81;26.68;92564.28;2064450;69;20094;-69
2022/04/18 09:23:22;;;;;;;;;;;;;;;19.76;24.87;92563.41;2065024;69;20458;-69
2022/04/18 09:26:00;;;;;;;;;;;;;;;19.80;25.18;92560.66;2065188;69;20054;-69
2022/04/18 09:28:32;;;;;;;;;;;;;;;18.40;25.75;92551.13;2048909;70;20423;-69
2022/04/18 09:31:03;;;;;;;;;;;;;;;18.05;27.57;92552.94;2068086;69;20050;-69
2022/04/18 09:33:30;;;;;;;;;;;;;;;18.09;26.78;92547.34;2067990;69;20051;-69
2022/04/18 09:36:10;;;;;;;;;;;;;;;17.82;27.43;92536.53;2052165;70;20055;-69
2022/04/18 09:38:37;;;;;;;;;;;;;;;17.90;27.37;92531.84;2065076;69;20074;-69
2022/04/18 09:41:30;;;;;;;;;;;;;;;17.70;26.69;92528.34;2051449;69;20496;-70
2022/04/18 09:44:00;;;;;;;;;;;;;;;17.33;27.76;92532.13;2052321;70;20152;-70
2022/04/18 09:46:30;;;;;;;;;;;;;;;18.76;26.75;92526.53;2065160;69;20142;-68
2022/04/18 09:49:07;;;;;;;;;;;;;;;17.92;26.83;92529.06;2065164;69;20487;-69
2022/04/18 09:51:38;;;;;;;;;;;;;;;17.69;27.56;92524.03;2065138;69;20047;-69
2022/04/18 09:54:11;;;;;;;;;;;;;;;18.60;26.79;92516.78;2065008;69;20055;-69
2022/04/18 09:56:46;;;;;;;;;;;;;;;18.97;25.41;92516.44;2065117;69;20439;-72
2022/04/18 09:59:14;;;;;;;;;;;;;;;19.38;25.09;92508.94;2052217;70;20449;-69
2022/04/18 10:01:40;;;;;;;;;;;;;;;19.60;25.35;92499.44;2052196;70;20054;-71
2022/04/18 10:04:07;;;;;;;;;;;;;;;19.79;25.00;92504.19;2065388;69;20069;-69
2022/04/18 10:06:33;;;;;;;;;;;;;;;19.75;24.50;92487.72;2052618;70;20475;-69
2022/04/18 10:08:59;;;;;;;;;;;;;;;19.11;24.79;92490.41;2052450;70;20119;-69
2022/04/18 10:11:25;;;;;;;;;;;;;;;19.46;24.21;92494.84;2052662;70;20141;-69
2022/04/18 10:13:50;;;;;;;;;;;;;;;20.14;25.12;92474.28;2052589;69;20045;-69
2022/04/18 10:16:17;;;;;;;;;;;;;;;19.95;24.33;92481.00;2052839;69;20043;-70
2022/04/18 10:18:59;;;;;;;;;;;;;;;20.98;22.89;92473.13;2065581;69;20070;-72
2022/04/18 10:21:26;;;;;;;;;;;;;;;21.97;22.46;92467.66;2052556;70;20094;-70
2022/04/18 10:24:24;;;;;;;;;;;;;;;22.49;22.38;92464.78;2052529;70;20544;-72
2022/04/18 10:27:00;;;;;;;;;;;;;;;21.38;22.59;92455.97;2055449;69;20054;-73
2022/04/18 10:29:29;;;;;;;;;;;;;;;22.16;22.74;92451.47;2052584;70;20063;-71
2022/04/18 10:31:55;;;;;;;;;;;;;;;22.04;22.28;92443.41;2052539;70;20093;-70
2022/04/18 10:34:31;;;;;;;;;;;;;;;22.79;20.89;92443.66;2052535;70;20533;-71
2022/04/18 10:36:57;;;;;;;;;;;;;;;21.53;20.43;92439.75;2052569;70;20043;-71
2022/04/18 10:39:31;;;;;;;;;;;;;;;22.06;20.67;92429.09;2052453;70;20051;-70
2022/04/18 10:41:57;;;;;;;;;;;;;;;23.45;19.23;92427.81;2052538;69;20046;-70
2022/04/18 10:44:31;;;;;;;;;;;;;;;23.57;20.31;92430.78;2065507;69;20074;-73
2022/04/18 10:47:03;;;;;;;;;;;;;;;24.17;19.48;92429.09;2052684;70;20051;-71
2022/04/18 10:49:33;;;;;;;;;;;;;;;25.52;17.26;92421.63;2052794;70;20046;-70
2022/04/18 10:52:09;;;;;;;;;;;;;;;24.76;16.97;92420.75;2052515;70;20046;-70
2022/04/18 10:54:35;;;;;;;;;;;;;;;26.05;16.71;92413.00;2052431;70;20051;-70
2022/04/18 10:57:01;;;;;;;;;;;;;;;27.05;17.49;92409.81;2065508;69;20190;-70
2022/04/18 10:59:28;;;;;;;;;;;;;;;26.93;16.63;92415.63;2052512;70;20086;-70
2022/04/18 11:01:54;;;;;;;;;;;;;;;30.09;15.06;92415.94;2052513;69;20051;-71
2022/04/18 11:04:26;;;;;;;;;;;;;;;32.35;13.68;92407.63;2052495;69;20062;-70
2022/04/18 11:06:58;;;;;;;;;;;;;;;33.92;12.45;92419.28;2052483;70;20129;-70
2022/04/18 11:09:24;;;;;;;;;;;;;;;35.67;11.70;92410.28;2065385;69;20059;-70
2022/04/18 11:12:01;;;;;;;;;;;;;;;34.04;11.83;92407.94;2052409;70;20430;-71
2022/04/18 11:14:28;;;;;;;;;;;;;;;37.19;10.82;92410.69;2051810;69;20498;-69
2022/04/18 11:16:58;;;;;;;;;;;;;;;38.23;10.61;92403.66;2052186;70;20062;-73
2022/04/18 11:19:25;;;;;;;;;;;;;;;37.98;10.06;92410.00;2054999;70;20072;-73
2022/04/18 11:22:00;;;;;;;;;;;;;;;36.61;9.65;92395.53;2055656;69;20486;-71
2022/04/18 11:24:34;;;;;;;;;;;;;;;39.92;9.81;92408.97;2054579;70;20492;-69
2022/04/18 11:27:00;;;;;;;;;;;;;;;38.61;9.59;92403.28;2055375;69;20122;-69
2022/04/18 11:29:26;;;;;;;;;;;;;;;41.02;9.09;92396.09;2055591;70;20480;-69
2022/04/18 11:31:53;;;;;;;;;;;;;;;39.59;8.85;92395.31;2068668;69;20450;-71
2022/04/18 11:34:18;;;;;;;;;;;;;;;40.60;8.20;92397.78;2055607;69;20474;-69
2022/04/18 11:36:44;;;;;;;;;;;;;;;41.28;7.88;92393.78;2055550;70;20221;-69
2022/04/18 11:39:12;;;;;;;;;;;;;;;40.81;8.50;92388.44;2055452;69;20136;-70
2022/04/18 11:41:38;;;;;;;;;;;;;;;41.01;7.95;92382.88;2055596;70;20105;-69
2022/04/18 11:44:03;;;;;;;;;;;;;;;41.47;8.15;92373.44;2055645;70;20090;-68
2022/04/18 11:46:29;;;;;;;;;;;;;;;38.76;7.27;92370.94;2055593;70;20425;-70
2022/04/18 11:48:55;;;;;;;;;;;;;;;38.60;8.40;92376.13;2055406;70;20062;-68
2022/04/18 11:51:36;;;;;;;;;;;;;;;38.64;8.18;92381.09;2055026;70;20057;-68
2022/04/18 11:54:01;;;;;;;;;;;;;;;42.76;7.43;92371.84;2054868;70;20441;-68
2022/04/18 11:56:28;;;;;;;;;;;;;;;40.32;7.78;92373.56;2054974;70;20065;-69
2022/04/18 11:58:53;;;;;;;;;;;;;;;41.00;7.97;92361.50;2067934;69;20050;-70
2022/04/18 12:06:49;;;;;;;;;;;;;;;40.13;7.29;92343.72;2055533;70;20501;-73
2022/04/18 12:09:22;;;;;;;;;;;;;;;41.71;7.51;92352.78;2055557;70;20046;-69
2022/04/18 12:11:48;;;;;;;;;;;;;;;39.94;7.61;92346.25;2055437;69;20486;-69
2022/04/18 12:14:14;;;;;;;;;;;;;;;39.29;8.09;92348.31;2068516;69;20141;-67
2022/04/18 12:16:41;;;;;;;;;;;;;;;38.87;7.66;92330.66;2055616;69;20050;-69
2022/04/18 12:19:11;;;;;;;;;;;;;;;39.49;8.09;92334.69;2055249;69;20089;-67
2022/04/18 12:21:37;;;;;;;;;;;;;;;40.64;7.65;92323.81;2068595;69;20494;-68
2022/04/18 12:24:03;;;;;;;;;;;;;;;39.38;7.21;92334.56;2055420;70;20077;-68
2022/04/18 12:26:29;;;;;;;;;;;;;;;40.53;7.91;92322.28;2055531;69;20054;-70
2022/04/18 12:29:02;;;;;;;;;;;;;;;40.55;7.43;92316.25;2055555;70;20119;-72
2022/04/18 12:31:28;;;;;;;;;;;;;;;42.09;6.57;92326.66;2055327;70;20100;-70
2022/04/18 12:33:53;;;;;;;;;;;;;;;36.42;7.86;92315.72;2068561;69;20116;-69
2022/04/18 12:36:32;;;;;;;;;;;;;;;35.40;8.84;92300.06;2055454;69;20054;-70
2022/04/18 12:38:58;;;;;;;;;;;;;;;36.86;8.99;92294.78;2068506;69;20512;-69
2022/04/18 12:41:38;;;;;;;;;;;;;;;37.35;7.08;92304.28;2055430;70;20098;-69
2022/04/18 12:44:10;;;;;;;;;;;;;;;38.78;7.66;92297.31;2055553;69;20066;-69
2022/04/18 12:46:36;;;;;;;;;;;;;;;40.31;7.05;92295.47;2055523;69;20086;-70
2022/04/18 12:49:06;;;;;;;;;;;;;;;40.40;7.78;92284.63;2055378;70;20086;-71
2022/04/18 12:51:37;;;;;;;;;;;;;;;35.68;7.89;92285.84;2055614;70;20137;-71
2022/04/18 12:54:03;;;;;;;;;;;;;;;35.03;8.18;92282.53;2055546;70;20544;-71
2022/04/18 12:56:29;;;;;;;;;;;;;;;37.51;8.44;92283.00;2055558;70;20137;-71
2022/04/18 12:58:54;;;;;;;;;;;;;;;37.85;7.64;92286.53;2068522;69;20061;-71
2022/04/18 13:01:32;;;;;;;;;;;;;;;40.37;7.63;92279.69;2055686;70;20051;-72
2022/04/18 13:03:58;;;;;;;;;;;;;;;36.61;7.87;92257.75;2055683;70;20380;-71
2022/04/18 13:06:31;;;;;;;;;;;;;;;39.57;7.96;92277.59;2055547;70;20472;-73
2022/04/18 13:08:57;;;;;;;;;;;;;;;38.81;7.43;92269.94;2055446;70;20509;-70
2022/04/18 13:11:23;;;;;;;;;;;;;;;39.80;6.46;92271.19;2055677;70;20081;-70
2022/04/18 13:13:48;;;;;;;;;;;;;;;40.44;6.26;92263.03;2055500;70;20564;-70
2022/04/18 13:16:23;;;;;;;;;;;;;;;37.18;7.74;92257.38;2055546;70;20046;-71
2022/04/18 13:19:00;;;;;;;;;;;;;;;40.18;6.88;92259.41;2068555;69;20057;-70
2022/04/18 13:21:26;;;;;;;;;;;;;;;42.84;6.70;92258.09;2055501;69;20050;-70
2022/04/18 13:23:51;;;;;;;;;;;;;;;42.71;5.95;92260.53;2068380;69;20116;-71
2022/04/18 13:26:17;;;;;;;;;;;;;;;42.23;6.63;92259.28;2055530;69;20077;-70
2022/04/18 13:28:42;;;;;;;;;;;;;;;41.62;6.57;92264.66;2055713;70;20134;-71
2022/04/18 13:31:08;;;;;;;;;;;;;;;43.61;5.89;92260.88;2055562;69;20042;-70
2022/04/18 13:33:33;;;;;;;;;;;;;;;43.53;5.54;92256.25;2055605;70;20155;-70